createdAt,value
2024-02-05T00:04:02.011Z,4.22
2024-02-05T00:09:04.878Z,7.72
2024-02-05T00:14:06.938Z,4.13
2024-02-05T00:19:08.563Z,3.63
2024-02-05T00:24:13.891Z,5.55
2024-02-05T00:29:15.587Z,5.57
2024-02-05T00:34:17.306Z,4.88
2024-02-05T00:39:20.246Z,4.55
2024-02-05T00:44:21.870Z,5.97
2024-02-05T00:49:23.531Z,4.68
2024-02-05T00:54:26.388Z,5.43
2024-02-05T00:59:28.374Z,6.40
2024-02-05T01:04:30.016Z,5.63
2024-02-05T01:09:32.898Z,6.47
2024-02-05T01:14:34.682Z,6.25
2024-02-05T01:19:36.371Z,4.70
2024-02-05T01:24:39.269Z,8.75
2024-02-05T01:29:42.335Z,5.13
2024-02-05T01:34:43.992Z,5.32
2024-02-05T01:39:46.946Z,7.45
2024-02-05T01:44:48.568Z,4.18
2024-02-05T01:49:50.548Z,3.00
2024-02-05T01:54:53.538Z,4.63
2024-02-05T01:59:55.402Z,4.63
2024-02-05T02:04:59.280Z,4.95
2024-02-05T02:10:02.359Z,6.35
2024-02-05T02:15:04.721Z,5.10
2024-02-05T02:20:08.369Z,6.47
2024-02-05T02:25:11.498Z,4.10
2024-02-05T02:30:15.157Z,4.50
2024-02-05T02:35:25.620Z,1.58
2024-02-05T02:40:30.784Z,1.58
2024-02-05T02:45:33.773Z,1.92
2024-02-05T02:50:35.309Z,1.52
2024-02-05T02:55:38.192Z,2.10
2024-02-05T03:00:40.014Z,1.80
2024-02-05T03:05:41.723Z,1.45
2024-02-05T03:10:45.076Z,2.08
2024-02-05T03:15:46.788Z,1.58
2024-02-05T03:20:48.309Z,1.77
2024-02-05T03:25:51.325Z,1.50
2024-02-05T03:30:52.970Z,3.58
2024-02-05T03:35:54.589Z,1.80
2024-02-05T03:40:57.539Z,1.08
2024-02-05T03:45:59.115Z,2.25
2024-02-05T03:51:00.740Z,1.88
2024-02-05T03:56:03.970Z,1.60
2024-02-05T04:01:06.180Z,2.30
2024-02-05T04:06:08.003Z,1.67
2024-02-05T04:11:11.078Z,2.08
2024-02-05T04:16:15.622Z,1.50
2024-02-05T04:21:17.237Z,3.00
2024-02-05T04:26:20.284Z,2.65
2024-02-05T04:31:21.829Z,1.95
2024-02-05T04:36:23.452Z,1.00
2024-02-05T04:41:26.369Z,1.35
2024-02-05T04:46:27.981Z,2.05
2024-02-05T04:51:29.611Z,1.60
2024-02-05T04:56:32.532Z,1.80
2024-02-05T05:01:34.379Z,1.65
2024-02-05T05:06:36.076Z,2.70
2024-02-05T05:11:39.158Z,1.58
2024-02-05T05:16:40.848Z,2.95
2024-02-05T05:21:42.439Z,3.20
2024-02-05T05:26:45.415Z,1.48
2024-02-05T05:31:47.049Z,3.15
2024-02-05T05:36:48.576Z,2.08
2024-02-05T05:41:51.460Z,1.20
2024-02-05T05:46:53.068Z,2.75
2024-02-05T05:51:54.648Z,2.22
2024-02-05T05:56:57.762Z,1.30
2024-02-05T06:01:59.442Z,2.30
2024-02-05T06:07:01.142Z,1.80
2024-02-05T06:12:04.677Z,1.25
2024-02-05T06:17:06.290Z,1.08
2024-02-05T06:22:07.906Z,1.10
2024-02-05T06:27:10.818Z,3.22
2024-02-05T06:32:12.378Z,2.08
2024-02-05T06:37:14.091Z,1.33
2024-02-05T06:42:16.993Z,1.60
2024-02-05T06:47:18.509Z,2.10
2024-02-05T06:52:20.231Z,3.45
2024-02-05T06:57:23.235Z,3.40
2024-02-05T07:02:24.773Z,7.40
2024-02-05T07:07:28.813Z,8.15
2024-02-05T07:12:32.830Z,14.48
2024-02-05T07:17:35.913Z,10.13
2024-02-05T07:22:37.614Z,7.97
2024-02-05T07:27:40.551Z,5.72
2024-02-05T07:32:42.159Z,4.65
2024-02-05T07:37:43.883Z,3.72
2024-02-05T07:42:46.851Z,3.00
2024-02-05T07:47:48.455Z,10.63
2024-02-05T07:52:50.674Z,6.38
2024-02-05T07:57:53.521Z,7.95
2024-02-05T08:02:55.146Z,6.00
2024-02-05T08:07:56.712Z,4.72
2024-02-05T08:12:59.722Z,7.95
2024-02-05T08:18:01.533Z,6.20
2024-02-05T08:23:03.174Z,5.45
2024-02-05T08:28:06.814Z,7.47
2024-02-05T08:33:09.065Z,2.08
2024-02-05T08:38:10.666Z,3.72
2024-02-05T08:43:13.551Z,8.32
2024-02-05T08:48:15.160Z,6.30
2024-02-05T08:53:16.774Z,5.93
2024-02-05T08:58:19.955Z,8.25
2024-02-05T09:03:21.479Z,8.13
2024-02-05T09:08:23.009Z,8.40
2024-02-05T09:13:25.956Z,5.80
2024-02-05T09:18:27.674Z,4.88
2024-02-05T09:23:29.269Z,6.07
2024-02-05T09:28:32.260Z,5.22
2024-02-05T09:33:33.835Z,5.30
2024-02-05T09:38:35.412Z,6.50
2024-02-05T09:43:39.916Z,5.50
2024-02-05T09:48:43.788Z,8.38
2024-02-05T09:53:47.572Z,8.73
2024-02-05T09:58:50.462Z,8.90
2024-02-05T10:03:53.696Z,8.63
2024-02-05T10:09:00.670Z,6.13
2024-02-05T10:14:03.573Z,5.70
2024-02-05T10:19:05.561Z,5.80
2024-02-05T10:24:12.805Z,8.70
2024-02-05T10:29:16.517Z,5.25
2024-02-05T10:34:20.295Z,9.20
2024-02-05T10:39:23.155Z,6.32
2024-02-05T10:44:34.528Z,5.72
2024-02-05T10:49:42.638Z,6.22
2024-02-05T10:54:45.771Z,8.68
2024-02-05T10:59:48.960Z,6.13
2024-02-05T11:04:52.802Z,5.07
2024-02-05T11:09:56.010Z,5.93
2024-02-05T11:15:04.718Z,5.93
2024-02-05T11:20:11.612Z,5.40
2024-02-05T11:25:14.686Z,5.87
2024-02-05T11:30:20.172Z,6.82
2024-02-05T11:35:28.384Z,5.03
2024-02-05T11:40:32.776Z,8.07
2024-02-05T11:45:37.169Z,6.78
2024-02-05T11:50:38.875Z,6.25
2024-02-05T11:55:40.510Z,3.58
2024-02-05T12:00:43.602Z,5.25
2024-02-05T12:05:45.478Z,6.68
2024-02-05T12:10:47.512Z,2.88
2024-02-05T12:15:50.429Z,3.78
2024-02-05T12:20:58.057Z,4.80
2024-02-05T12:26:00.427Z,7.45
2024-02-05T12:31:03.362Z,4.68
2024-02-05T12:36:08.039Z,11.50
2024-02-05T12:41:10.387Z,5.10
2024-02-05T12:46:14.399Z,9.88
2024-02-05T12:51:16.464Z,5.43
2024-02-05T12:56:18.304Z,6.35
2024-02-05T13:01:21.393Z,6.57
2024-02-05T13:06:23.236Z,10.57
2024-02-05T13:11:25.319Z,5.90
2024-02-05T13:16:28.939Z,5.28
2024-02-05T13:21:30.589Z,6.38
2024-02-05T13:26:32.195Z,5.97
2024-02-05T13:31:35.204Z,5.18
2024-02-05T13:36:37.178Z,7.68
2024-02-05T13:41:38.977Z,8.75
2024-02-05T13:46:42.030Z,4.72
2024-02-05T13:51:43.697Z,7.13
2024-02-05T13:56:45.317Z,6.82
2024-02-05T14:01:48.146Z,5.20
2024-02-05T14:06:49.873Z,8.95
2024-02-05T14:11:51.476Z,3.70
2024-02-05T14:16:54.337Z,5.18
2024-02-05T14:21:55.994Z,5.97
2024-02-05T14:26:57.709Z,4.00
2024-02-05T14:32:00.532Z,6.70
2024-02-05T14:37:02.162Z,5.78
2024-02-05T14:42:04.079Z,5.20
2024-02-05T14:47:07.742Z,6.75
2024-02-05T14:52:09.245Z,5.10
2024-02-05T14:57:10.816Z,7.20
2024-02-05T15:02:14.005Z,5.85
2024-02-05T15:07:15.906Z,5.55
2024-02-05T15:12:17.524Z,6.90
2024-02-05T15:17:20.470Z,8.30
2024-02-05T15:22:23.410Z,6.22
2024-02-05T15:27:24.953Z,7.50
2024-02-05T15:32:27.916Z,6.47
2024-02-05T15:37:29.547Z,5.78
2024-02-05T15:42:31.513Z,8.98
2024-02-05T15:47:35.278Z,5.88
2024-02-05T15:52:36.990Z,10.52
2024-02-05T15:57:39.249Z,5.00
2024-02-05T16:02:42.103Z,3.80
2024-02-05T16:07:43.966Z,4.57
2024-02-05T16:12:45.537Z,5.78
2024-02-05T16:17:48.535Z,5.75
2024-02-05T16:22:50.201Z,6.18
2024-02-05T16:27:52.033Z,8.32
2024-02-05T16:32:55.085Z,4.93
2024-02-05T16:37:56.614Z,8.30
2024-02-05T16:42:58.181Z,3.88
2024-02-05T16:48:01.208Z,7.45
2024-02-05T16:53:02.927Z,4.22
2024-02-05T16:58:04.714Z,4.57
2024-02-05T17:03:07.614Z,7.22
2024-02-05T17:08:09.923Z,16.17
2024-02-05T17:13:11.524Z,5.15
2024-02-05T17:18:15.407Z,8.27
2024-02-05T17:23:17.029Z,11.45
2024-02-05T17:28:18.537Z,9.02
2024-02-05T17:33:21.679Z,7.65
2024-02-05T17:38:23.389Z,9.55
2024-02-05T17:43:24.999Z,9.73
2024-02-05T17:48:28.120Z,9.15
2024-02-05T17:53:29.816Z,15.30
2024-02-05T17:58:31.514Z,12.50
2024-02-05T18:03:34.652Z,16.85
2024-02-05T18:08:36.307Z,21.77
2024-02-05T18:13:38.031Z,18.13
2024-02-05T18:18:41.021Z,9.45
2024-02-05T18:23:42.614Z,5.72
2024-02-05T18:28:44.290Z,6.60
2024-02-05T18:33:47.259Z,9.43
2024-02-05T18:38:48.890Z,8.55
2024-02-05T18:43:50.419Z,10.13
2024-02-05T18:48:53.877Z,10.40
2024-02-05T18:53:55.483Z,7.00
2024-02-05T18:58:57.340Z,8.25
2024-02-05T19:04:00.535Z,9.10
2024-02-05T19:09:02.172Z,14.38
2024-02-05T19:14:04.580Z,12.95
2024-02-05T19:19:07.735Z,12.95
2024-02-05T19:24:09.369Z,12.43
2024-02-05T19:29:10.984Z,8.65
2024-02-05T19:34:14.032Z,8.40
2024-02-05T19:39:15.962Z,17.33
2024-02-05T19:44:17.567Z,11.38
2024-02-05T19:49:20.644Z,10.93
2024-02-05T19:54:22.287Z,12.35
2024-02-05T19:59:23.876Z,13.57
2024-02-05T20:04:27.013Z,12.90
2024-02-05T20:09:28.740Z,11.38
2024-02-05T20:14:30.389Z,12.07
2024-02-05T20:19:33.359Z,11.02
2024-02-05T20:24:35.100Z,11.20
2024-02-05T20:29:36.714Z,11.00
2024-02-05T20:34:39.939Z,11.60
2024-02-05T20:39:41.666Z,9.77
2024-02-05T20:44:43.329Z,14.50
2024-02-05T20:49:46.491Z,21.27
2024-02-05T20:54:48.268Z,13.82
2024-02-05T20:59:49.784Z,13.43
2024-02-05T21:04:52.884Z,17.80
2024-02-05T21:09:54.955Z,16.83
2024-02-05T21:14:56.580Z,16.23
2024-02-05T21:19:59.603Z,14.23
2024-02-05T21:25:01.217Z,11.15
2024-02-05T21:30:03.009Z,14.20
2024-02-05T21:35:06.759Z,14.85
2024-02-05T21:40:09.273Z,14.35
2024-02-05T21:45:11.100Z,13.75
2024-02-05T21:50:14.217Z,14.55
2024-02-05T21:55:16.124Z,13.95
2024-02-05T22:00:18.047Z,13.13
2024-02-05T22:05:21.030Z,9.75
2024-02-05T22:10:23.649Z,17.40
2024-02-05T22:15:25.305Z,8.85
2024-02-05T22:20:28.252Z,13.13
2024-02-05T22:25:29.803Z,9.43
2024-02-05T22:30:31.424Z,16.63
2024-02-05T22:35:35.515Z,7.50
2024-02-05T22:40:37.233Z,10.77
2024-02-05T22:45:38.993Z,14.20
2024-02-05T22:50:42.025Z,10.13
2024-02-05T22:55:43.687Z,10.82
2024-02-05T23:00:45.408Z,15.00
2024-02-05T23:05:48.448Z,12.77
2024-02-05T23:10:50.077Z,10.43
2024-02-05T23:15:52.894Z,8.25
2024-02-05T23:20:56.134Z,13.90
2024-02-05T23:25:57.779Z,10.32
2024-02-05T23:30:59.497Z,7.00
2024-02-05T23:36:02.480Z,9.50
2024-02-05T23:41:04.234Z,12.25
2024-02-05T23:46:06.647Z,10.13
2024-02-05T23:51:09.703Z,6.05
2024-02-05T23:56:11.313Z,9.82
